sensor_id;sensor_type;location;lat;lon;timestamp;temperature;humidity
70166;SHT30;57541;47.408;18.822;2022-10-16T00:00:03;14.01;83.87
70166;SHT30;57541;47.408;18.822;2022-10-16T00:00:36;13.99;83.84
70166;SHT30;57541;47.408;18.822;2022-10-16T00:01:13;13.96;83.86
70166;SHT30;57541;47.408;18.822;2022-10-16T00:01:45;13.99;83.92
70166;SHT30;57541;47.408;18.822;2022-10-16T00:02:17;13.99;83.93
70166;SHT30;57541;47.408;18.822;2022-10-16T00:02:48;13.95;84.04
70166;SHT30;57541;47.408;18.822;2022-10-16T00:03:20;13.96;84.04
70166;SHT30;57541;47.408;18.822;2022-10-16T00:03:59;13.92;84.21
70166;SHT30;57541;47.408;18.822;2022-10-16T00:04:31;13.92;84.25
70166;SHT30;57541;47.408;18.822;2022-10-16T00:05:02;13.93;84.14
70166;SHT30;57541;47.408;18.822;2022-10-16T00:05:42;13.93;84.15
70166;SHT30;57541;47.408;18.822;2022-10-16T00:06:15;13.89;84.07
70166;SHT30;57541;47.408;18.822;2022-10-16T00:06:47;13.89;84.04
70166;SHT30;57541;47.408;18.822;2022-10-16T00:07:18;13.90;83.99
70166;SHT30;57541;47.408;18.822;2022-10-16T00:07:50;13.85;84.03
70166;SHT30;57541;47.408;18.822;2022-10-16T00:08:22;13.85;84.15
70166;SHT30;57541;47.408;18.822;2022-10-16T00:08:53;13.83;84.08
70166;SHT30;57541;47.408;18.822;2022-10-16T00:09:25;13.82;84.07
70166;SHT30;57541;47.408;18.822;2022-10-16T00:09:57;13.83;84.16
70166;SHT30;57541;47.408;18.822;2022-10-16T00:10:28;13.82;84.09
70166;SHT30;57541;47.408;18.822;2022-10-16T00:11:03;13.86;84.14
70166;SHT30;57541;47.408;18.822;2022-10-16T00:11:37;13.83;84.08
70166;SHT30;57541;47.408;18.822;2022-10-16T00:12:09;13.86;84.05
70166;SHT30;57541;47.408;18.822;2022-10-16T00:12:40;13.81;83.99
70166;SHT30;57541;47.408;18.822;2022-10-16T00:13:12;13.82;84.05
70166;SHT30;57541;47.408;18.822;2022-10-16T00:13:45;13.83;84.08
70166;SHT30;57541;47.408;18.822;2022-10-16T00:14:17;13.82;84.02
70166;SHT30;57541;47.408;18.822;2022-10-16T00:14:48;13.82;84.06
70166;SHT30;57541;47.408;18.822;2022-10-16T00:15:20;13.81;84.10
70166;SHT30;57541;47.408;18.822;2022-10-16T00:15:55;13.81;84.19
70166;SHT30;57541;47.408;18.822;2022-10-16T00:16:28;13.83;84.16
70166;SHT30;57541;47.408;18.822;2022-10-16T00:16:59;13.81;84.02
70166;SHT30;57541;47.408;18.822;2022-10-16T00:17:31;13.81;84.04
70166;SHT30;57541;47.408;18.822;2022-10-16T00:18:04;13.79;84.08
70166;SHT30;57541;47.408;18.822;2022-10-16T00:18:36;13.74;84.04
70166;SHT30;57541;47.408;18.822;2022-10-16T00:19:10;13.72;84.26
70166;SHT30;57541;47.408;18.822;2022-10-16T00:19:42;13.76;84.21
70166;SHT30;57541;47.408;18.822;2022-10-16T00:20:13;13.72;84.15
70166;SHT30;57541;47.408;18.822;2022-10-16T00:20:45;13.72;84.17
70166;SHT30;57541;47.408;18.822;2022-10-16T00:21:19;13.72;84.27
70166;SHT30;57541;47.408;18.822;2022-10-16T00:21:51;13.75;84.27
70166;SHT30;57541;47.408;18.822;2022-10-16T00:22:23;13.75;84.20
70166;SHT30;57541;47.408;18.822;2022-10-16T00:22:55;13.69;84.15
70166;SHT30;57541;47.408;18.822;2022-10-16T00:23:27;13.72;84.25
70166;SHT30;57541;47.408;18.822;2022-10-16T00:24:04;13.71;84.10
70166;SHT30;57541;47.408;18.822;2022-10-16T00:24:36;13.68;84.19
70166;SHT30;57541;47.408;18.822;2022-10-16T00:25:08;13.66;84.41
70166;SHT30;57541;47.408;18.822;2022-10-16T00:25:40;13.64;84.49
70166;SHT30;57541;47.408;18.822;2022-10-16T00:26:14;13.66;84.38
70166;SHT30;57541;47.408;18.822;2022-10-16T00:26:49;13.61;84.30
70166;SHT30;57541;47.408;18.822;2022-10-16T00:27:20;13.64;84.43
70166;SHT30;57541;47.408;18.822;2022-10-16T00:27:52;13.59;84.49
70166;SHT30;57541;47.408;18.822;2022-10-16T00:28:24;13.59;84.53
70166;SHT30;57541;47.408;18.822;2022-10-16T00:28:56;13.62;84.50
70166;SHT30;57541;47.408;18.822;2022-10-16T00:29:27;13.62;84.50
70166;SHT30;57541;47.408;18.822;2022-10-16T00:29:59;13.61;84.40
70166;SHT30;57541;47.408;18.822;2022-10-16T00:30:31;13.61;84.37
70166;SHT30;57541;47.408;18.822;2022-10-16T00:31:11;13.61;84.51
70166;SHT30;57541;47.408;18.822;2022-10-16T00:31:43;13.58;84.53
70166;SHT30;57541;47.408;18.822;2022-10-16T00:32:15;13.51;84.66
70166;SHT30;57541;47.408;18.822;2022-10-16T00:32:46;13.53;84.65
70166;SHT30;57541;47.408;18.822;2022-10-16T00:33:18;13.54;84.59
70166;SHT30;57541;47.408;18.822;2022-10-16T00:33:50;13.50;84.59
70166;SHT30;57541;47.408;18.822;2022-10-16T00:34:22;13.50;84.85
70166;SHT30;57541;47.408;18.822;2022-10-16T00:34:53;13.50;84.90
70166;SHT30;57541;47.408;18.822;2022-10-16T00:35:28;13.43;85.10
70166;SHT30;57541;47.408;18.822;2022-10-16T00:36:02;13.45;85.02
70166;SHT30;57541;47.408;18.822;2022-10-16T00:36:33;13.40;85.13
70166;SHT30;57541;47.408;18.822;2022-10-16T00:37:05;13.40;85.29
70166;SHT30;57541;47.408;18.822;2022-10-16T00:37:37;13.43;85.17
70166;SHT30;57541;47.408;18.822;2022-10-16T00:38:08;13.43;85.09
70166;SHT30;57541;47.408;18.822;2022-10-16T00:38:40;13.38;85.31
70166;SHT30;57541;47.408;18.822;2022-10-16T00:39:11;13.37;85.11
70166;SHT30;57541;47.408;18.822;2022-10-16T00:39:43;13.38;85.13
70166;SHT30;57541;47.408;18.822;2022-10-16T00:40:15;13.35;85.23
70166;SHT30;57541;47.408;18.822;2022-10-16T00:40:46;13.38;85.14
70166;SHT30;57541;47.408;18.822;2022-10-16T00:41:18;13.40;85.12
70166;SHT30;57541;47.408;18.822;2022-10-16T00:41:50;13.41;85.05
70166;SHT30;57541;47.408;18.822;2022-10-16T00:42:22;13.40;84.98
70166;SHT30;57541;47.408;18.822;2022-10-16T00:42:54;13.38;85.08
70166;SHT30;57541;47.408;18.822;2022-10-16T00:43:44;13.34;85.25
70166;SHT30;57541;47.408;18.822;2022-10-16T00:44:51;13.34;85.17
70166;SHT30;57541;47.408;18.822;2022-10-16T00:45:27;13.26;85.51
70166;SHT30;57541;47.408;18.822;2022-10-16T00:46:00;13.20;86.05
70166;SHT30;57541;47.408;18.822;2022-10-16T00:46:40;13.21;85.58
70166;SHT30;57541;47.408;18.822;2022-10-16T00:47:41;13.18;85.49
70166;SHT30;57541;47.408;18.822;2022-10-16T00:48:13;13.17;85.61
70166;SHT30;57541;47.408;18.822;2022-10-16T00:49:32;13.14;85.78
70166;SHT30;57541;47.408;18.822;2022-10-16T00:50:16;13.13;85.68
70166;SHT30;57541;47.408;18.822;2022-10-16T00:50:50;13.11;85.76
70166;SHT30;57541;47.408;18.822;2022-10-16T00:51:25;13.08;85.93
70166;SHT30;57541;47.408;18.822;2022-10-16T00:51:57;13.08;85.95
70166;SHT30;57541;47.408;18.822;2022-10-16T00:52:28;13.04;86.25
70166;SHT30;57541;47.408;18.822;2022-10-16T00:53:01;13.08;85.90
70166;SHT30;57541;47.408;18.822;2022-10-16T00:53:33;13.08;85.82
70166;SHT30;57541;47.408;18.822;2022-10-16T00:54:10;13.07;85.85
70166;SHT30;57541;47.408;18.822;2022-10-16T00:54:42;13.03;86.45
70166;SHT30;57541;47.408;18.822;2022-10-16T00:55:14;12.99;86.45
70166;SHT30;57541;47.408;18.822;2022-10-16T00:55:46;13.03;86.18
70166;SHT30;57541;47.408;18.822;2022-10-16T00:56:18;12.99;86.42
70166;SHT30;57541;47.408;18.822;2022-10-16T00:56:50;13.00;85.98
70166;SHT30;57541;47.408;18.822;2022-10-16T00:57:22;13.04;85.85
70166;SHT30;57541;47.408;18.822;2022-10-16T00:57:55;13.00;85.63
70166;SHT30;57541;47.408;18.822;2022-10-16T00:58:27;12.99;85.72
70166;SHT30;57541;47.408;18.822;2022-10-16T00:58:59;12.93;86.59
70166;SHT30;57541;47.408;18.822;2022-10-16T00:59:36;12.95;86.43
70166;SHT30;57541;47.408;18.822;2022-10-16T01:00:10;12.96;86.30
70166;SHT30;57541;47.408;18.822;2022-10-16T01:00:42;12.95;86.19
70166;SHT30;57541;47.408;18.822;2022-10-16T01:01:14;12.93;86.13
70166;SHT30;57541;47.408;18.822;2022-10-16T01:01:45;12.95;86.28
70166;SHT30;57541;47.408;18.822;2022-10-16T01:02:17;12.92;86.19
70166;SHT30;57541;47.408;18.822;2022-10-16T01:02:57;12.90;86.38
70166;SHT30;57541;47.408;18.822;2022-10-16T01:03:32;12.92;86.38
70166;SHT30;57541;47.408;18.822;2022-10-16T01:04:04;12.85;86.19
70166;SHT30;57541;47.408;18.822;2022-10-16T01:04:39;12.86;86.35
70166;SHT30;57541;47.408;18.822;2022-10-16T01:05:11;12.87;86.43
70166;SHT30;57541;47.408;18.822;2022-10-16T01:05:49;12.85;86.78
70166;SHT30;57541;47.408;18.822;2022-10-16T01:06:46;12.82;86.76
70166;SHT30;57541;47.408;18.822;2022-10-16T01:07:43;12.76;86.63
70166;SHT30;57541;47.408;18.822;2022-10-16T01:08:22;12.73;86.75
70166;SHT30;57541;47.408;18.822;2022-10-16T01:09:13;12.82;86.31
70166;SHT30;57541;47.408;18.822;2022-10-16T01:10:02;12.83;86.14
70166;SHT30;57541;47.408;18.822;2022-10-16T01:10:54;12.89;86.23
70166;SHT30;57541;47.408;18.822;2022-10-16T01:11:41;12.82;86.30
70166;SHT30;57541;47.408;18.822;2022-10-16T01:14:22;12.77;86.24
70166;SHT30;57541;47.408;18.822;2022-10-16T01:15:08;12.73;86.33
70166;SHT30;57541;47.408;18.822;2022-10-16T01:16:05;12.73;86.36
70166;SHT30;57541;47.408;18.822;2022-10-16T01:16:44;12.68;86.39
70166;SHT30;57541;47.408;18.822;2022-10-16T01:17:21;12.66;86.65
70166;SHT30;57541;47.408;18.822;2022-10-16T01:18:13;12.69;86.73
70166;SHT30;57541;47.408;18.822;2022-10-16T01:19:00;12.66;86.76
70166;SHT30;57541;47.408;18.822;2022-10-16T01:20:45;12.63;86.36
70166;SHT30;57541;47.408;18.822;2022-10-16T01:21:28;12.62;86.47
70166;SHT30;57541;47.408;18.822;2022-10-16T01:22:01;12.59;86.57
70166;SHT30;57541;47.408;18.822;2022-10-16T01:23:02;12.62;86.56
70166;SHT30;57541;47.408;18.822;2022-10-16T01:23:45;12.59;87.01
70166;SHT30;57541;47.408;18.822;2022-10-16T01:24:40;12.52;87.25
70166;SHT30;57541;47.408;18.822;2022-10-16T01:25:25;12.45;87.48
70166;SHT30;57541;47.408;18.822;2022-10-16T01:26:43;12.46;87.36
70166;SHT30;57541;47.408;18.822;2022-10-16T01:27:42;12.44;87.47
70166;SHT30;57541;47.408;18.822;2022-10-16T01:28:16;12.38;87.76
70166;SHT30;57541;47.408;18.822;2022-10-16T01:28:57;12.41;88.01
70166;SHT30;57541;47.408;18.822;2022-10-16T01:29:45;12.29;88.12
70166;SHT30;57541;47.408;18.822;2022-10-16T01:30:29;12.31;88.23
70166;SHT30;57541;47.408;18.822;2022-10-16T01:31:02;12.28;88.17
70166;SHT30;57541;47.408;18.822;2022-10-16T01:31:36;12.21;88.32
70166;SHT30;57541;47.408;18.822;2022-10-16T01:32:31;12.21;88.37
70166;SHT30;57541;47.408;18.822;2022-10-16T01:33:50;12.21;88.29
70166;SHT30;57541;47.408;18.822;2022-10-16T01:34:36;12.18;87.94
70166;SHT30;57541;47.408;18.822;2022-10-16T01:35:47;12.17;88.18
70166;SHT30;57541;47.408;18.822;2022-10-16T01:36:25;12.21;88.11
70166;SHT30;57541;47.408;18.822;2022-10-16T01:37:05;12.24;87.77
70166;SHT30;57541;47.408;18.822;2022-10-16T01:37:52;12.22;87.71
70166;SHT30;57541;47.408;18.822;2022-10-16T01:38:32;12.24;87.57
70166;SHT30;57541;47.408;18.822;2022-10-16T01:39:06;12.22;87.66
70166;SHT30;57541;47.408;18.822;2022-10-16T01:39:42;12.27;87.46
70166;SHT30;57541;47.408;18.822;2022-10-16T01:40:18;12.24;87.42
70166;SHT30;57541;47.408;18.822;2022-10-16T01:40:53;12.24;87.55
70166;SHT30;57541;47.408;18.822;2022-10-16T01:41:32;12.27;87.40
70166;SHT30;57541;47.408;18.822;2022-10-16T01:42:21;12.20;87.60
70166;SHT30;57541;47.408;18.822;2022-10-16T01:44:06;12.24;87.30
70166;SHT30;57541;47.408;18.822;2022-10-16T01:44:40;12.24;87.28
70166;SHT30;57541;47.408;18.822;2022-10-16T01:45:14;12.24;87.21
70166;SHT30;57541;47.408;18.822;2022-10-16T01:45:47;12.18;87.26
70166;SHT30;57541;47.408;18.822;2022-10-16T01:46:20;12.20;87.35
70166;SHT30;57541;47.408;18.822;2022-10-16T01:46:54;12.16;87.28
70166;SHT30;57541;47.408;18.822;2022-10-16T01:47:26;12.21;86.95
70166;SHT30;57541;47.408;18.822;2022-10-16T01:48:00;12.21;86.89
70166;SHT30;57541;47.408;18.822;2022-10-16T01:48:35;12.20;86.92
70166;SHT30;57541;47.408;18.822;2022-10-16T01:49:09;12.17;86.96
70166;SHT30;57541;47.408;18.822;2022-10-16T01:49:43;12.18;86.93
70166;SHT30;57541;47.408;18.822;2022-10-16T01:50:18;12.21;86.89
70166;SHT30;57541;47.408;18.822;2022-10-16T01:51:12;12.20;86.81
70166;SHT30;57541;47.408;18.822;2022-10-16T01:51:47;12.20;86.73
70166;SHT30;57541;47.408;18.822;2022-10-16T01:52:23;12.21;86.70
70166;SHT30;57541;47.408;18.822;2022-10-16T01:52:58;12.22;86.65
70166;SHT30;57541;47.408;18.822;2022-10-16T01:53:30;12.20;86.57
70166;SHT30;57541;47.408;18.822;2022-10-16T01:54:05;12.22;86.36
70166;SHT30;57541;47.408;18.822;2022-10-16T01:54:41;12.25;86.48
70166;SHT30;57541;47.408;18.822;2022-10-16T01:55:16;12.24;86.57
70166;SHT30;57541;47.408;18.822;2022-10-16T01:55:50;12.27;86.54
70166;SHT30;57541;47.408;18.822;2022-10-16T01:56:25;12.22;86.49
70166;SHT30;57541;47.408;18.822;2022-10-16T01:56:57;12.24;86.41
70166;SHT30;57541;47.408;18.822;2022-10-16T01:57:29;12.25;86.43
70166;SHT30;57541;47.408;18.822;2022-10-16T01:58:04;12.27;86.39
70166;SHT30;57541;47.408;18.822;2022-10-16T01:58:43;12.25;86.34
70166;SHT30;57541;47.408;18.822;2022-10-16T01:59:19;12.24;86.33
70166;SHT30;57541;47.408;18.822;2022-10-16T01:59:55;12.25;86.15
70166;SHT30;57541;47.408;18.822;2022-10-16T02:01:44;12.27;85.92
70166;SHT30;57541;47.408;18.822;2022-10-16T02:02:17;12.27;86.00
70166;SHT30;57541;47.408;18.822;2022-10-16T02:02:53;12.28;85.97
70166;SHT30;57541;47.408;18.822;2022-10-16T02:03:26;12.28;85.93
70166;SHT30;57541;47.408;18.822;2022-10-16T02:04:01;12.27;85.95
70166;SHT30;57541;47.408;18.822;2022-10-16T02:04:38;12.24;86.04
70166;SHT30;57541;47.408;18.822;2022-10-16T02:05:16;12.25;85.91
70166;SHT30;57541;47.408;18.822;2022-10-16T02:05:55;12.22;85.94
70166;SHT30;57541;47.408;18.822;2022-10-16T02:06:27;12.22;85.96
70166;SHT30;57541;47.408;18.822;2022-10-16T02:07:00;12.24;85.83
70166;SHT30;57541;47.408;18.822;2022-10-16T02:07:32;12.24;85.79
70166;SHT30;57541;47.408;18.822;2022-10-16T02:08:04;12.27;85.70
70166;SHT30;57541;47.408;18.822;2022-10-16T02:08:37;12.24;85.73
70166;SHT30;57541;47.408;18.822;2022-10-16T02:09:10;12.22;85.85
70166;SHT30;57541;47.408;18.822;2022-10-16T02:09:42;12.24;85.69
70166;SHT30;57541;47.408;18.822;2022-10-16T02:10:14;12.27;85.68
70166;SHT30;57541;47.408;18.822;2022-10-16T02:10:46;12.28;85.66
70166;SHT30;57541;47.408;18.822;2022-10-16T02:11:18;12.28;85.57
70166;SHT30;57541;47.408;18.822;2022-10-16T02:11:52;12.28;85.62
70166;SHT30;57541;47.408;18.822;2022-10-16T02:12:28;12.20;86.59
70166;SHT30;57541;47.408;18.822;2022-10-16T02:13:16;12.17;86.43
70166;SHT30;57541;47.408;18.822;2022-10-16T02:13:52;12.16;86.26
70166;SHT30;57541;47.408;18.822;2022-10-16T02:14:26;12.18;86.41
70166;SHT30;57541;47.408;18.822;2022-10-16T02:14:57;12.21;86.29
70166;SHT30;57541;47.408;18.822;2022-10-16T02:15:29;12.17;86.28
70166;SHT30;57541;47.408;18.822;2022-10-16T02:16:00;12.14;86.55
70166;SHT30;57541;47.408;18.822;2022-10-16T02:16:37;12.11;86.60
70166;SHT30;57541;47.408;18.822;2022-10-16T02:17:12;12.11;86.67
70166;SHT30;57541;47.408;18.822;2022-10-16T02:17:44;12.08;86.71
70166;SHT30;57541;47.408;18.822;2022-10-16T02:18:16;12.08;86.57
70166;SHT30;57541;47.408;18.822;2022-10-16T02:18:47;12.08;86.55
70166;SHT30;57541;47.408;18.822;2022-10-16T02:19:21;12.07;86.52
70166;SHT30;57541;47.408;18.822;2022-10-16T02:19:55;12.11;86.32
70166;SHT30;57541;47.408;18.822;2022-10-16T02:20:29;12.11;86.27
70166;SHT30;57541;47.408;18.822;2022-10-16T02:21:25;12.11;86.19
70166;SHT30;57541;47.408;18.822;2022-10-16T02:22:01;12.13;86.13
70166;SHT30;57541;47.408;18.822;2022-10-16T02:22:43;12.11;85.90
70166;SHT30;57541;47.408;18.822;2022-10-16T02:23:24;12.10;86.20
70166;SHT30;57541;47.408;18.822;2022-10-16T02:25:04;12.10;86.03
70166;SHT30;57541;47.408;18.822;2022-10-16T02:25:40;12.13;85.93
70166;SHT30;57541;47.408;18.822;2022-10-16T02:26:17;12.13;86.10
70166;SHT30;57541;47.408;18.822;2022-10-16T02:27:51;12.07;86.23
70166;SHT30;57541;47.408;18.822;2022-10-16T02:28:31;12.07;86.11
70166;SHT30;57541;47.408;18.822;2022-10-16T02:29:08;12.04;86.16
70166;SHT30;57541;47.408;18.822;2022-10-16T02:29:46;12.01;86.24
70166;SHT30;57541;47.408;18.822;2022-10-16T02:30:29;12.00;86.42
70166;SHT30;57541;47.408;18.822;2022-10-16T02:31:04;12.04;85.97
70166;SHT30;57541;47.408;18.822;2022-10-16T02:31:41;11.98;86.11
70166;SHT30;57541;47.408;18.822;2022-10-16T02:32:17;12.00;86.23
70166;SHT30;57541;47.408;18.822;2022-10-16T02:32:51;12.01;86.49
70166;SHT30;57541;47.408;18.822;2022-10-16T02:33:25;11.98;86.61
70166;SHT30;57541;47.408;18.822;2022-10-16T02:33:58;12.00;86.58
70166;SHT30;57541;47.408;18.822;2022-10-16T02:34:32;12.01;86.53
70166;SHT30;57541;47.408;18.822;2022-10-16T02:35:06;11.97;86.70
70166;SHT30;57541;47.408;18.822;2022-10-16T02:35:39;11.97;86.33
70166;SHT30;57541;47.408;18.822;2022-10-16T02:36:12;12.00;85.91
70166;SHT30;57541;47.408;18.822;2022-10-16T02:36:44;11.98;85.96
70166;SHT30;57541;47.408;18.822;2022-10-16T02:37:17;12.01;85.94
70166;SHT30;57541;47.408;18.822;2022-10-16T02:37:50;11.98;86.07
70166;SHT30;57541;47.408;18.822;2022-10-16T02:38:24;12.02;86.25
70166;SHT30;57541;47.408;18.822;2022-10-16T02:38:58;12.04;85.94
70166;SHT30;57541;47.408;18.822;2022-10-16T02:39:31;12.01;86.23
70166;SHT30;57541;47.408;18.822;2022-10-16T02:40:04;11.95;86.46
70166;SHT30;57541;47.408;18.822;2022-10-16T02:40:36;11.93;86.47
70166;SHT30;57541;47.408;18.822;2022-10-16T02:41:10;11.86;86.59
70166;SHT30;57541;47.408;18.822;2022-10-16T02:41:42;11.84;86.61
70166;SHT30;57541;47.408;18.822;2022-10-16T02:42:14;11.87;86.48
70166;SHT30;57541;47.408;18.822;2022-10-16T02:42:50;11.87;86.40
70166;SHT30;57541;47.408;18.822;2022-10-16T02:43:22;11.91;86.15
70166;SHT30;57541;47.408;18.822;2022-10-16T02:43:53;11.93;85.98
70166;SHT30;57541;47.408;18.822;2022-10-16T02:44:26;11.91;86.10
70166;SHT30;57541;47.408;18.822;2022-10-16T02:44:57;11.91;86.13
70166;SHT30;57541;47.408;18.822;2022-10-16T02:45:29;11.91;85.97
70166;SHT30;57541;47.408;18.822;2022-10-16T02:46:01;11.94;85.88
70166;SHT30;57541;47.408;18.822;2022-10-16T02:46:32;11.93;85.83
70166;SHT30;57541;47.408;18.822;2022-10-16T02:47:04;11.93;85.69
70166;SHT30;57541;47.408;18.822;2022-10-16T02:47:36;11.93;85.83
70166;SHT30;57541;47.408;18.822;2022-10-16T02:48:07;11.90;85.77
70166;SHT30;57541;47.408;18.822;2022-10-16T02:48:39;11.94;85.72
70166;SHT30;57541;47.408;18.822;2022-10-16T02:49:10;11.98;85.46
70166;SHT30;57541;47.408;18.822;2022-10-16T02:49:42;11.97;85.44
70166;SHT30;57541;47.408;18.822;2022-10-16T02:50:14;12.01;85.32
70166;SHT30;57541;47.408;18.822;2022-10-16T02:50:46;12.00;85.31
70166;SHT30;57541;47.408;18.822;2022-10-16T02:51:18;12.00;85.38
70166;SHT30;57541;47.408;18.822;2022-10-16T02:51:49;12.00;85.33
70166;SHT30;57541;47.408;18.822;2022-10-16T02:52:21;12.00;85.49
70166;SHT30;57541;47.408;18.822;2022-10-16T02:52:52;11.98;85.35
70166;SHT30;57541;47.408;18.822;2022-10-16T02:53:24;12.00;85.26
70166;SHT30;57541;47.408;18.822;2022-10-16T02:53:56;12.02;85.20
70166;SHT30;57541;47.408;18.822;2022-10-16T02:54:27;12.04;85.12
70166;SHT30;57541;47.408;18.822;2022-10-16T02:54:59;12.05;84.96
70166;SHT30;57541;47.408;18.822;2022-10-16T02:55:30;12.02;85.06
70166;SHT30;57541;47.408;18.822;2022-10-16T02:56:02;12.02;85.11
70166;SHT30;57541;47.408;18.822;2022-10-16T02:56:33;12.00;85.13
70166;SHT30;57541;47.408;18.822;2022-10-16T02:57:05;11.97;85.21
70166;SHT30;57541;47.408;18.822;2022-10-16T02:57:36;11.98;85.25
70166;SHT30;57541;47.408;18.822;2022-10-16T02:58:08;11.94;85.24
70166;SHT30;57541;47.408;18.822;2022-10-16T02:58:40;11.94;85.25
70166;SHT30;57541;47.408;18.822;2022-10-16T02:59:11;11.91;85.22
70166;SHT30;57541;47.408;18.822;2022-10-16T02:59:43;11.94;85.20
70166;SHT30;57541;47.408;18.822;2022-10-16T03:00:16;11.94;85.11
70166;SHT30;57541;47.408;18.822;2022-10-16T03:00:48;11.95;84.97
70166;SHT30;57541;47.408;18.822;2022-10-16T03:01:19;11.97;84.94
70166;SHT30;57541;47.408;18.822;2022-10-16T03:01:51;11.95;85.00
70166;SHT30;57541;47.408;18.822;2022-10-16T03:02:23;11.94;85.03
70166;SHT30;57541;47.408;18.822;2022-10-16T03:02:54;11.94;85.15
70166;SHT30;57541;47.408;18.822;2022-10-16T03:03:26;11.97;85.13
70166;SHT30;57541;47.408;18.822;2022-10-16T03:03:57;11.95;85.00
70166;SHT30;57541;47.408;18.822;2022-10-16T03:04:29;11.95;85.11
70166;SHT30;57541;47.408;18.822;2022-10-16T03:05:01;11.94;85.06
70166;SHT30;57541;47.408;18.822;2022-10-16T03:05:32;11.95;85.17
70166;SHT30;57541;47.408;18.822;2022-10-16T03:06:04;11.94;85.20
70166;SHT30;57541;47.408;18.822;2022-10-16T03:06:37;11.97;85.13
70166;SHT30;57541;47.408;18.822;2022-10-16T03:07:08;11.97;85.03
70166;SHT30;57541;47.408;18.822;2022-10-16T03:07:40;11.94;85.01
70166;SHT30;57541;47.408;18.822;2022-10-16T03:08:12;11.91;85.09
70166;SHT30;57541;47.408;18.822;2022-10-16T03:08:44;11.90;85.16
70166;SHT30;57541;47.408;18.822;2022-10-16T03:09:15;11.88;85.11
70166;SHT30;57541;47.408;18.822;2022-10-16T03:09:47;11.90;85.16
70166;SHT30;57541;47.408;18.822;2022-10-16T03:10:19;11.87;85.21
70166;SHT30;57541;47.408;18.822;2022-10-16T03:10:51;11.87;85.23
70166;SHT30;57541;47.408;18.822;2022-10-16T03:11:23;11.90;85.27
70166;SHT30;57541;47.408;18.822;2022-10-16T03:11:54;11.90;85.24
70166;SHT30;57541;47.408;18.822;2022-10-16T03:12:29;11.86;85.22
70166;SHT30;57541;47.408;18.822;2022-10-16T03:13:01;11.86;85.13
70166;SHT30;57541;47.408;18.822;2022-10-16T03:13:32;11.81;85.57
70166;SHT30;57541;47.408;18.822;2022-10-16T03:14:04;11.83;86.00
70166;SHT30;57541;47.408;18.822;2022-10-16T03:14:36;11.80;85.74
70166;SHT30;57541;47.408;18.822;2022-10-16T03:15:08;11.76;85.78
70166;SHT30;57541;47.408;18.822;2022-10-16T03:15:39;11.77;85.89
70166;SHT30;57541;47.408;18.822;2022-10-16T03:16:11;11.77;85.75
70166;SHT30;57541;47.408;18.822;2022-10-16T03:16:43;11.77;85.40
70166;SHT30;57541;47.408;18.822;2022-10-16T03:17:14;11.79;85.49
70166;SHT30;57541;47.408;18.822;2022-10-16T03:17:48;11.80;85.47
70166;SHT30;57541;47.408;18.822;2022-10-16T03:18:19;11.81;85.47
70166;SHT30;57541;47.408;18.822;2022-10-16T03:18:51;11.86;85.36
70166;SHT30;57541;47.408;18.822;2022-10-16T03:19:22;11.81;85.36
70166;SHT30;57541;47.408;18.822;2022-10-16T03:19:54;11.80;85.36
70166;SHT30;57541;47.408;18.822;2022-10-16T03:20:26;11.83;85.49
70166;SHT30;57541;47.408;18.822;2022-10-16T03:20:57;11.81;85.47
70166;SHT30;57541;47.408;18.822;2022-10-16T03:21:29;11.76;85.86
70166;SHT30;57541;47.408;18.822;2022-10-16T03:22:01;11.73;85.67
70166;SHT30;57541;47.408;18.822;2022-10-16T03:22:32;11.76;85.81
70166;SHT30;57541;47.408;18.822;2022-10-16T03:23:04;11.73;85.74
70166;SHT30;57541;47.408;18.822;2022-10-16T03:23:36;11.70;85.69
70166;SHT30;57541;47.408;18.822;2022-10-16T03:24:07;11.74;86.00
70166;SHT30;57541;47.408;18.822;2022-10-16T03:24:39;11.76;85.77
70166;SHT30;57541;47.408;18.822;2022-10-16T03:25:10;11.65;85.74
70166;SHT30;57541;47.408;18.822;2022-10-16T03:25:42;11.66;85.88
70166;SHT30;57541;47.408;18.822;2022-10-16T03:26:13;11.67;85.93
70166;SHT30;57541;47.408;18.822;2022-10-16T03:26:45;11.66;85.89
70166;SHT30;57541;47.408;18.822;2022-10-16T03:27:17;11.69;85.60
70166;SHT30;57541;47.408;18.822;2022-10-16T03:27:48;11.65;85.96
70166;SHT30;57541;47.408;18.822;2022-10-16T03:28:20;11.65;85.79
70166;SHT30;57541;47.408;18.822;2022-10-16T03:28:51;11.66;85.79
70166;SHT30;57541;47.408;18.822;2022-10-16T03:29:23;11.67;85.76
70166;SHT30;57541;47.408;18.822;2022-10-16T03:29:54;11.69;85.66
70166;SHT30;57541;47.408;18.822;2022-10-16T03:30:26;11.70;85.67
70166;SHT30;57541;47.408;18.822;2022-10-16T03:30:58;11.71;85.64
70166;SHT30;57541;47.408;18.822;2022-10-16T03:31:30;11.73;85.72
70166;SHT30;57541;47.408;18.822;2022-10-16T03:32:02;11.70;85.76
70166;SHT30;57541;47.408;18.822;2022-10-16T03:32:33;11.67;86.31
70166;SHT30;57541;47.408;18.822;2022-10-16T03:33:06;11.66;86.56
70166;SHT30;57541;47.408;18.822;2022-10-16T03:33:37;11.59;86.65
70166;SHT30;57541;47.408;18.822;2022-10-16T03:34:09;11.58;86.70
70166;SHT30;57541;47.408;18.822;2022-10-16T03:34:40;11.58;86.68
70166;SHT30;57541;47.408;18.822;2022-10-16T03:35:12;11.56;86.79
70166;SHT30;57541;47.408;18.822;2022-10-16T03:35:50;11.49;87.21
70166;SHT30;57541;47.408;18.822;2022-10-16T03:36:22;11.46;87.26
70166;SHT30;57541;47.408;18.822;2022-10-16T03:36:54;11.40;87.43
70166;SHT30;57541;47.408;18.822;2022-10-16T03:37:25;11.44;87.35
70166;SHT30;57541;47.408;18.822;2022-10-16T03:37:58;11.46;87.02
70166;SHT30;57541;47.408;18.822;2022-10-16T03:38:29;11.50;87.08
70166;SHT30;57541;47.408;18.822;2022-10-16T03:39:01;11.40;87.17
70166;SHT30;57541;47.408;18.822;2022-10-16T03:39:32;11.43;87.22
70166;SHT30;57541;47.408;18.822;2022-10-16T03:40:05;11.39;87.00
70166;SHT30;57541;47.408;18.822;2022-10-16T03:40:36;11.42;86.88
70166;SHT30;57541;47.408;18.822;2022-10-16T03:41:08;11.40;86.62
70166;SHT30;57541;47.408;18.822;2022-10-16T03:41:39;11.43;86.82
70166;SHT30;57541;47.408;18.822;2022-10-16T03:42:11;11.33;87.46
70166;SHT30;57541;47.408;18.822;2022-10-16T03:42:44;11.32;87.42
70166;SHT30;57541;47.408;18.822;2022-10-16T03:43:15;11.35;87.63
70166;SHT30;57541;47.408;18.822;2022-10-16T03:43:47;11.32;87.72
70166;SHT30;57541;47.408;18.822;2022-10-16T03:44:18;11.28;87.73
70166;SHT30;57541;47.408;18.822;2022-10-16T03:44:50;11.21;88.03